createdAt,value
2019-05-29T16:44:46.194Z,21.50
2019-05-29T16:47:16.616Z,20.70
2019-05-29T16:49:47.002Z,19.70
2019-05-29T16:52:17.375Z,19.00
2019-05-29T16:54:48.071Z,18.00
2019-05-29T16:57:19.396Z,17.60
2019-05-29T16:59:50.782Z,17.30
2019-05-29T17:02:21.722Z,17.10
2019-05-29T17:04:53.289Z,16.90
2019-05-29T17:07:24.261Z,16.80
2019-05-29T17:09:55.811Z,16.60
2019-05-29T17:12:26.172Z,16.50
2019-05-29T17:14:56.554Z,16.40
2019-05-29T17:17:30.341Z,16.30
2019-05-29T17:19:59.177Z,16.30
2019-05-29T17:22:29.550Z,16.30
2019-05-29T17:25:00.026Z,16.20
2019-05-29T17:27:30.380Z,16.10
2019-05-29T17:30:00.769Z,16.10
2019-05-29T17:32:31.145Z,16.00
2019-05-29T17:35:01.536Z,16.00
2019-05-29T17:37:32.086Z,15.90
2019-05-29T17:40:02.457Z,15.80
2019-05-29T17:42:36.031Z,15.80
2019-05-29T17:45:11.337Z,15.60
2019-05-29T17:47:45.160Z,15.60
2019-05-29T17:50:19.095Z,15.40
2019-05-29T17:52:47.940Z,15.40
2019-05-29T17:55:37.640Z,15.30
2019-05-29T17:58:08.034Z,15.20
2019-05-29T18:00:38.467Z,15.10
2019-05-29T18:03:09.036Z,15.00
2019-05-29T18:05:39.413Z,14.90
2019-05-29T18:08:22.890Z,14.80
2019-05-29T18:10:54.284Z,14.70
2019-05-29T18:13:25.319Z,14.60
2019-05-29T18:15:57.767Z,14.60
2019-05-29T18:18:28.571Z,14.60
2019-05-29T18:20:59.862Z,14.50
2019-05-29T18:23:31.920Z,14.40
2019-05-29T18:26:02.290Z,14.30
2019-05-29T18:28:32.673Z,14.20
2019-05-29T18:31:03.047Z,14.10
2019-05-29T18:33:33.433Z,14.00
2019-05-29T18:36:03.867Z,13.90
2019-05-29T18:38:34.255Z,13.80
2019-05-29T18:41:04.803Z,13.70
2019-05-29T18:43:35.179Z,13.60
2019-05-29T18:46:05.678Z,13.50
2019-05-29T18:48:36.069Z,13.40
2019-05-29T18:51:06.425Z,13.30
2019-05-29T18:53:36.824Z,13.20
2019-05-29T18:56:07.177Z,13.10
2019-05-29T18:58:39.012Z,13.00
2019-05-29T19:01:09.383Z,12.90
2019-05-29T19:03:40.639Z,12.80
2019-05-29T19:06:12.196Z,12.60
2019-05-29T19:08:43.085Z,12.60
2019-05-29T19:11:13.631Z,12.40
2019-05-29T19:13:44.104Z,12.30
2019-05-29T19:16:14.497Z,12.20
2019-05-29T19:18:45.113Z,12.10
2019-05-29T19:21:15.470Z,12.00
2019-05-29T19:23:45.897Z,11.90
2019-05-29T19:26:16.264Z,11.80
2019-05-29T19:28:48.212Z,11.70
2019-05-29T19:31:19.810Z,11.60
2019-05-29T19:33:50.191Z,11.40
2019-05-29T19:36:20.551Z,11.30
2019-05-29T19:38:50.983Z,11.20
2019-05-29T19:41:22.331Z,11.10
2019-05-29T19:43:52.712Z,11.00
2019-05-29T19:46:24.406Z,10.90
2019-05-29T19:48:54.849Z,10.90
2019-05-29T19:51:25.317Z,10.80
2019-05-29T19:53:58.953Z,10.70
2019-05-29T19:56:29.658Z,10.60
2019-05-29T19:59:00.065Z,10.50
2019-05-29T20:01:36.126Z,10.50
2019-05-29T20:04:02.514Z,10.30
2019-05-29T20:06:33.188Z,10.20
2019-05-29T20:09:04.579Z,10.10
2019-05-29T20:11:35.914Z,10.00
2019-05-29T20:14:07.675Z,9.90
2019-05-29T20:16:39.165Z,9.90
2019-05-29T20:19:09.932Z,9.90
2019-05-29T20:21:40.268Z,9.80
2019-05-29T20:24:10.785Z,9.80
2019-05-29T20:26:41.421Z,9.70
2019-05-29T20:29:15.689Z,9.60
2019-05-29T20:31:46.043Z,9.60
2019-05-29T20:34:16.634Z,9.50
2019-05-29T20:36:46.972Z,9.40
2019-05-29T20:39:17.422Z,9.40
2019-05-29T20:41:47.866Z,9.30
2019-05-29T20:44:18.287Z,9.30
2019-05-29T20:46:48.640Z,9.20
2019-05-29T20:49:22.568Z,9.20
2019-05-29T20:51:53.000Z,9.10
2019-05-29T20:54:23.695Z,9.10
2019-05-29T20:56:54.133Z,9.10
2019-05-29T20:59:24.527Z,9.00
2019-05-29T21:01:54.880Z,9.00
2019-05-29T21:04:25.275Z,8.80
2019-05-29T21:06:55.615Z,8.70
2019-05-29T21:09:26.015Z,8.70
2019-05-29T21:11:56.399Z,8.60
2019-05-29T21:14:26.780Z,8.50
2019-05-29T21:16:57.135Z,8.50
2019-05-29T21:19:27.529Z,8.40
2019-05-29T21:21:57.885Z,8.40
2019-05-29T21:24:28.651Z,8.40
2019-05-29T21:26:59.001Z,8.30
2019-05-29T21:29:29.654Z,8.30
2019-05-29T21:32:00.336Z,8.30
2019-05-29T21:34:31.685Z,8.20
2019-05-29T21:37:02.031Z,8.20
2019-05-29T21:39:32.555Z,8.20
2019-05-29T21:42:02.993Z,8.10
2019-05-29T21:44:45.365Z,8.10
2019-05-29T21:47:15.713Z,8.00
2019-05-29T21:49:47.436Z,8.00
2019-05-29T21:52:17.883Z,7.90
2019-05-29T21:54:48.266Z,7.90
2019-05-29T21:57:18.630Z,7.80
2019-05-29T21:59:49.165Z,7.80
2019-05-29T22:02:19.530Z,7.80
2019-05-29T22:04:50.030Z,7.70
2019-05-29T22:07:20.372Z,7.70
2019-05-29T22:09:50.756Z,7.60
2019-05-29T22:12:21.100Z,7.60
2019-05-29T22:14:52.022Z,7.50
2019-05-29T22:17:23.638Z,7.50
2019-05-29T22:19:54.943Z,7.40
2019-05-29T22:22:25.359Z,7.30
2019-05-29T22:24:55.746Z,7.20
2019-05-29T22:27:27.264Z,7.20
2019-05-29T22:29:57.640Z,7.20
2019-05-29T22:32:27.995Z,7.10
2019-05-29T22:34:59.501Z,7.10
2019-05-29T22:37:29.916Z,7.10
2019-05-29T22:40:00.280Z,7.00
2019-05-29T22:42:30.638Z,7.00
2019-05-29T22:45:02.243Z,7.00
2019-05-29T22:47:33.616Z,7.00
2019-05-29T22:50:06.335Z,7.00
2019-05-29T22:52:36.757Z,6.90
2019-05-29T22:55:08.844Z,7.00
2019-05-29T22:57:39.202Z,6.90
2019-05-29T23:00:11.483Z,6.90
2019-05-29T23:02:41.839Z,6.90
2019-05-29T23:05:12.283Z,6.90
2019-05-29T23:07:42.643Z,6.80
2019-05-29T23:10:13.435Z,6.80
2019-05-29T23:12:43.798Z,6.80
2019-05-29T23:15:14.977Z,6.70
2019-05-29T23:17:45.341Z,6.70
2019-05-29T23:20:15.843Z,6.70
2019-05-29T23:22:46.190Z,6.70
2019-05-29T23:25:16.564Z,6.70
2019-05-29T23:27:47.894Z,6.60
2019-05-29T23:30:18.576Z,6.60
2019-05-29T23:32:48.933Z,6.50
2019-05-29T23:35:19.575Z,6.50
2019-05-29T23:37:49.930Z,6.40
2019-05-29T23:40:20.978Z,6.50
2019-05-29T23:42:51.333Z,6.50
2019-05-29T23:45:21.705Z,6.40
2019-05-29T23:47:53.308Z,6.40
2019-05-29T23:50:23.814Z,6.30
2019-05-29T23:52:54.185Z,6.30
2019-05-29T23:55:24.536Z,6.30
2019-05-29T23:57:55.687Z,6.30
